createdAt,value
2018-11-11T00:00:24.282Z,3.90
2018-11-11T00:01:24.314Z,1.70
2018-11-11T00:02:24.438Z,2.20
2018-11-11T00:03:24.243Z,2.30
2018-11-11T00:04:24.233Z,1.10
2018-11-11T00:05:24.261Z,1.70
2018-11-11T00:06:24.242Z,2.80
2018-11-11T00:07:24.203Z,1.50
2018-11-11T00:08:24.227Z,1.10
2018-11-11T00:09:24.190Z,2.60
2018-11-11T00:10:24.180Z,1.50
2018-11-11T00:11:24.199Z,2.60
2018-11-11T00:12:24.180Z,3.10
2018-11-11T00:13:24.125Z,1.60
2018-11-11T07:08:18.737Z,1.60
2018-11-11T07:09:18.655Z,6.60
2018-11-11T07:10:18.669Z,7.70
2018-11-11T07:11:18.663Z,4.70
2018-11-11T07:12:18.616Z,3.00
2018-11-11T07:13:18.612Z,7.50
2018-11-11T07:14:18.584Z,6.80
2018-11-11T07:15:18.587Z,9.90
2018-11-11T07:16:18.618Z,3.80
2018-11-11T07:17:18.571Z,3.20
2018-11-11T07:18:18.560Z,3.60
2018-11-11T07:19:18.523Z,4.40
2018-11-11T07:20:18.550Z,2.50
2018-11-11T07:21:18.524Z,2.20
2018-11-11T07:22:18.491Z,6.80
2018-11-11T07:23:18.470Z,5.10
2018-11-11T07:24:18.567Z,2.70
2018-11-11T07:25:18.451Z,3.60
2018-11-11T07:26:18.462Z,5.90
2018-11-11T07:27:18.442Z,2.50
2018-11-11T07:28:18.417Z,2.90
2018-11-11T07:29:18.418Z,3.30
2018-11-11T07:30:18.437Z,3.90
2018-11-11T07:31:18.398Z,2.10
2018-11-11T07:32:18.374Z,2.50
2018-11-11T07:33:18.362Z,3.60
2018-11-11T07:34:18.371Z,4.40
2018-11-11T07:35:18.341Z,3.90
2018-11-11T07:36:18.397Z,3.40
2018-11-11T07:37:18.312Z,4.00
2018-11-11T07:38:18.301Z,2.80
2018-11-11T07:41:14.045Z,1.10
2018-11-11T07:42:14.074Z,1.80
2018-11-11T07:43:14.015Z,4.20
2018-11-11T07:44:13.996Z,1.90
2018-11-11T07:45:13.987Z,4.70
2018-11-11T07:46:14.013Z,3.10
2018-11-11T07:47:13.968Z,3.90
2018-11-11T07:48:13.959Z,5.60
2018-11-11T07:49:13.945Z,1.60
2018-11-11T07:50:13.934Z,2.90
2018-11-11T07:51:13.955Z,1.90
2018-11-11T07:52:13.911Z,1.40
2018-11-11T07:53:16.718Z,2.60
2018-11-11T07:54:18.710Z,1.90
2018-11-11T07:55:14.119Z,2.00
2018-11-11T07:56:13.895Z,2.50
2018-11-11T07:57:21.084Z,4.30
2018-11-11T07:58:13.868Z,7.40
2018-11-11T07:59:13.852Z,3.50
2018-11-11T08:00:14.920Z,12.50
2018-11-11T08:01:13.839Z,4.10
2018-11-11T08:02:13.871Z,10.20
2018-11-11T08:03:20.888Z,8.90
2018-11-11T08:04:13.787Z,13.20
2018-11-11T08:05:13.793Z,20.20
2018-11-11T08:06:13.844Z,11.40
2018-11-11T08:07:13.778Z,13.60
2018-11-11T08:08:14.269Z,7.40
2018-11-11T08:09:14.753Z,8.00
2018-11-11T08:10:13.722Z,5.40
2018-11-11T08:11:13.864Z,13.00
2018-11-11T08:12:13.708Z,7.30
2018-11-11T08:13:13.729Z,9.50
2018-11-11T08:14:13.700Z,6.20
2018-11-11T08:15:13.680Z,7.10
2018-11-11T08:16:13.654Z,4.90
2018-11-11T08:17:13.686Z,6.40
2018-11-11T08:18:13.656Z,5.20
2018-11-11T08:19:13.619Z,14.50
2018-11-11T08:20:13.624Z,19.20
2018-11-11T08:21:13.600Z,8.70
2018-11-11T08:22:21.962Z,11.20
2018-11-11T08:23:13.594Z,15.20
2018-11-11T08:24:13.561Z,9.20
2018-11-11T08:25:13.562Z,12.60
2018-11-11T08:26:13.543Z,12.20
2018-11-11T08:27:14.278Z,7.50
2018-11-11T08:28:13.521Z,11.50
2018-11-11T08:29:13.535Z,9.70
2018-11-11T08:30:13.506Z,10.40
2018-11-11T08:31:13.505Z,7.70
2018-11-11T08:32:13.634Z,7.70
2018-11-11T08:33:13.510Z,5.00
2018-11-11T08:34:13.473Z,3.00
2018-11-11T08:35:13.646Z,17.20
2018-11-11T08:36:13.449Z,11.60
2018-11-11T08:37:13.469Z,8.80
2018-11-11T08:38:13.411Z,9.10
2018-11-11T08:39:13.407Z,9.40
2018-11-11T08:40:13.408Z,8.30
2018-11-11T08:41:13.389Z,15.60
2018-11-11T08:42:13.796Z,9.30
2018-11-11T08:43:13.358Z,8.40
2018-11-11T08:44:13.343Z,8.80
2018-11-11T08:45:13.354Z,9.90
2018-11-11T08:46:13.373Z,10.80
2018-11-11T08:47:13.432Z,14.20
2018-11-11T08:48:13.348Z,6.90
2018-11-11T08:49:13.496Z,13.40
2018-11-11T08:50:13.299Z,11.00
2018-11-11T08:51:13.276Z,6.20
2018-11-11T08:52:13.280Z,13.30
2018-11-11T08:53:13.313Z,6.60
2018-11-11T08:54:13.284Z,8.20
2018-11-11T08:55:13.261Z,9.60
2018-11-11T08:56:13.303Z,9.50
2018-11-11T08:57:34.355Z,15.70
2018-11-11T08:58:20.788Z,7.50
2018-11-11T08:59:13.310Z,7.90
2018-11-11T09:00:13.215Z,18.20
2018-11-11T09:01:13.168Z,10.30
2018-11-11T09:02:13.443Z,17.70
2018-11-11T09:03:13.150Z,31.10
2018-11-11T09:04:13.137Z,29.00
2018-11-11T09:05:13.153Z,30.00
2018-11-11T09:06:13.135Z,24.00
2018-11-11T09:07:39.427Z,27.20
2018-11-11T09:08:38.814Z,14.60
2018-11-11T09:09:13.086Z,22.80
2018-11-11T09:10:13.067Z,30.30
2018-11-11T09:11:13.104Z,26.70
2018-11-11T09:12:13.070Z,12.80
2018-11-11T09:13:13.033Z,15.80
2018-11-11T09:14:13.018Z,11.80
2018-11-11T09:15:13.024Z,17.40
2018-11-11T09:16:13.004Z,13.50
2018-11-11T09:17:13.049Z,9.90
2018-11-11T09:18:12.982Z,13.60
2018-11-11T09:19:12.987Z,12.90
2018-11-11T09:20:12.959Z,9.90
2018-11-11T09:21:12.972Z,10.30
2018-11-11T09:22:12.957Z,16.70
2018-11-11T09:23:17.816Z,25.70
2018-11-11T09:24:12.973Z,39.70
2018-11-11T09:25:12.916Z,27.90
2018-11-11T09:26:13.027Z,25.50
2018-11-11T09:27:13.082Z,31.40
2018-11-11T09:28:12.894Z,29.20
2018-11-11T09:29:12.872Z,32.20
2018-11-11T09:30:12.878Z,34.40
2018-11-11T09:31:12.886Z,32.90
2018-11-11T09:32:13.814Z,25.80
2018-11-11T09:33:12.840Z,23.90
2018-11-11T09:34:12.806Z,22.90
2018-11-11T09:35:12.855Z,29.00
2018-11-11T09:36:12.781Z,42.60
2018-11-11T09:37:12.769Z,29.30
2018-11-11T09:38:19.505Z,36.70
2018-11-11T09:39:13.447Z,31.70
2018-11-11T09:40:12.739Z,21.50
2018-11-11T09:41:13.378Z,24.50
2018-11-11T09:42:12.723Z,21.40
2018-11-11T09:43:12.723Z,22.60
2018-11-11T09:44:12.704Z,25.20
2018-11-11T09:45:12.689Z,29.80
2018-11-11T09:46:12.713Z,25.40
2018-11-11T09:47:12.674Z,23.50
2018-11-11T09:48:12.675Z,15.70
2018-11-11T09:49:12.666Z,14.20
2018-11-11T09:50:12.629Z,21.40
2018-11-11T09:51:12.628Z,16.20
2018-11-11T09:52:12.612Z,25.00
2018-11-11T09:53:12.636Z,23.40
2018-11-11T09:54:12.773Z,21.00
2018-11-11T09:55:12.636Z,18.50
2018-11-11T09:56:12.566Z,23.10
2018-11-11T09:57:12.574Z,21.10
2018-11-11T09:58:12.857Z,17.60
2018-11-11T09:59:12.569Z,24.10
2018-11-11T10:00:12.530Z,19.20
2018-11-11T10:01:12.513Z,25.70
2018-11-11T10:02:12.499Z,32.30
2018-11-11T10:03:12.858Z,26.40
2018-11-11T10:04:12.482Z,23.90
2018-11-11T10:05:12.510Z,19.80
2018-11-11T10:06:12.571Z,28.30
2018-11-11T10:07:12.560Z,18.40
2018-11-11T10:08:12.463Z,26.50
2018-11-11T10:09:12.442Z,25.10
2018-11-11T10:10:12.453Z,21.70
2018-11-11T10:11:12.431Z,19.70
2018-11-11T10:12:12.458Z,16.60
2018-11-11T10:13:12.440Z,17.10
2018-11-11T10:14:12.376Z,17.50
2018-11-11T10:15:12.376Z,17.00
2018-11-11T10:16:12.356Z,12.00
2018-11-11T10:17:12.345Z,12.60
2018-11-11T10:18:12.369Z,13.50
2018-11-11T10:19:12.341Z,19.20
2018-11-11T10:20:12.349Z,9.50
2018-11-11T10:21:12.300Z,18.40
2018-11-11T10:22:12.287Z,18.90
2018-11-11T10:23:12.316Z,10.20
2018-11-11T10:24:12.289Z,9.50
2018-11-11T10:25:12.261Z,12.50
2018-11-11T10:26:12.247Z,12.20
2018-11-11T10:27:12.657Z,12.50
2018-11-11T10:28:12.219Z,8.80
2018-11-11T10:29:12.289Z,10.90
2018-11-11T10:30:12.200Z,9.60
2018-11-11T10:31:12.247Z,12.00
2018-11-11T10:32:12.196Z,13.20
2018-11-11T10:33:12.181Z,13.60
2018-11-11T10:34:12.198Z,8.50
2018-11-11T10:35:12.148Z,10.10
2018-11-11T10:36:12.141Z,6.60
2018-11-11T10:37:13.043Z,9.30
2018-11-11T10:38:12.147Z,11.90
2018-11-11T10:39:12.197Z,9.80
2018-11-11T10:40:12.100Z,12.50
2018-11-11T10:41:12.087Z,15.00
2018-11-11T10:42:12.074Z,4.80
2018-11-11T10:43:12.076Z,10.20
2018-11-11T10:44:12.112Z,6.20
2018-11-11T10:45:12.043Z,6.70
2018-11-11T10:46:12.036Z,4.60
2018-11-11T10:47:12.133Z,5.60
2018-11-11T10:48:12.068Z,7.10
2018-11-11T10:49:12.101Z,6.60
2018-11-11T10:50:12.333Z,6.90
2018-11-11T10:51:11.974Z,20.90
2018-11-11T10:52:11.961Z,35.00
2018-11-11T10:53:12.101Z,17.80
2018-11-11T10:54:13.396Z,23.20
2018-11-11T10:55:11.938Z,19.60
2018-11-11T10:56:11.923Z,18.70
2018-11-11T10:57:11.907Z,18.70
2018-11-11T10:58:11.903Z,12.90
2018-11-11T10:59:11.925Z,13.30
2018-11-11T11:00:11.887Z,18.80
2018-11-11T11:01:11.865Z,12.70
2018-11-11T11:02:11.859Z,9.20
2018-11-11T11:03:11.894Z,10.50
2018-11-11T11:04:11.865Z,12.50
2018-11-11T11:05:11.840Z,14.00
2018-11-11T11:06:11.883Z,14.50
2018-11-11T11:07:11.804Z,13.80
2018-11-11T11:08:11.815Z,14.40
2018-11-11T11:09:11.783Z,16.70
2018-11-11T11:10:11.806Z,15.70
2018-11-11T11:11:11.768Z,21.40
2018-11-11T11:12:11.753Z,16.50
2018-11-11T11:13:11.816Z,10.30
2018-11-11T11:14:11.730Z,15.90
2018-11-11T11:15:11.741Z,18.00
2018-11-11T11:16:11.703Z,17.80
2018-11-11T11:17:12.330Z,11.40
2018-11-11T11:18:12.332Z,8.40
2018-11-11T11:19:11.668Z,9.30
2018-11-11T11:20:11.708Z,9.70
2018-11-11T11:21:11.682Z,10.00
2018-11-11T11:22:11.638Z,8.30
2018-11-11T11:23:11.761Z,8.80
2018-11-11T11:24:11.625Z,12.40
2018-11-11T11:25:11.628Z,16.20
2018-11-11T11:26:11.594Z,9.50
2018-11-11T11:27:11.653Z,9.70
2018-11-11T11:28:11.575Z,6.30
2018-11-11T11:29:11.559Z,12.50
2018-11-11T11:30:11.576Z,5.60
2018-11-11T11:31:11.540Z,5.50
2018-11-11T11:32:11.654Z,11.50
2018-11-11T11:33:11.515Z,5.60
2018-11-11T11:34:11.511Z,9.00
2018-11-11T11:35:11.582Z,13.00
2018-11-11T11:36:11.485Z,11.10
2018-11-11T11:37:11.474Z,4.60
2018-11-11T11:38:11.510Z,3.90
2018-11-11T11:39:11.451Z,9.70
2018-11-11T11:40:12.540Z,6.30
2018-11-11T11:41:11.610Z,6.90
2018-11-11T11:42:11.639Z,10.50
2018-11-11T11:43:11.428Z,7.00
2018-11-11T11:44:11.523Z,8.50
2018-11-11T11:45:11.425Z,6.20
2018-11-11T11:46:11.426Z,6.90
2018-11-11T11:47:11.400Z,7.90
2018-11-11T11:48:11.367Z,9.20
2018-11-11T11:49:11.368Z,9.10
2018-11-11T11:50:11.399Z,3.90
2018-11-11T11:51:11.359Z,8.10
2018-11-11T11:52:11.330Z,4.90
2018-11-11T11:53:11.315Z,6.50
2018-11-11T11:54:11.295Z,6.10
2018-11-11T11:55:11.298Z,7.60
2018-11-11T11:56:11.301Z,6.10
2018-11-11T11:57:11.276Z,5.40
2018-11-11T11:58:11.334Z,3.40
2018-11-11T11:59:11.257Z,3.40
2018-11-11T12:00:11.227Z,5.10
2018-11-11T12:01:11.263Z,5.20
2018-11-11T12:02:11.286Z,8.70
2018-11-11T12:03:11.198Z,5.90
2018-11-11T12:04:11.191Z,4.70
2018-11-11T12:05:11.174Z,6.60
2018-11-11T12:06:11.201Z,4.30
2018-11-11T12:07:11.165Z,5.60
2018-11-11T12:08:11.145Z,5.30
2018-11-11T12:09:11.280Z,6.40
2018-11-11T12:10:11.132Z,5.40
2018-11-11T12:11:11.122Z,4.80
2018-11-11T12:12:11.130Z,4.20
2018-11-11T12:13:11.101Z,5.30
2018-11-11T12:14:11.076Z,4.50
2018-11-11T12:15:11.079Z,3.60
2018-11-11T12:16:11.057Z,5.00
2018-11-11T12:17:11.141Z,3.90
2018-11-11T12:18:11.038Z,3.20
2018-11-11T12:19:11.069Z,6.90
2018-11-11T12:20:11.045Z,4.50
2018-11-11T12:21:11.018Z,3.70
2018-11-11T12:22:11.012Z,3.50
2018-11-11T12:23:11.001Z,3.60
2018-11-11T12:24:10.970Z,5.60
2018-11-11T12:25:10.973Z,6.20
2018-11-11T12:26:10.940Z,5.10
2018-11-11T12:27:11.160Z,9.00
2018-11-11T12:28:10.940Z,6.00
2018-11-11T12:29:10.946Z,5.70
2018-11-11T12:30:10.912Z,9.30
2018-11-11T12:31:10.901Z,9.50
2018-11-11T12:32:10.905Z,4.70
2018-11-11T12:33:10.876Z,6.30
2018-11-11T12:34:10.860Z,6.70
2018-11-11T12:35:10.922Z,6.30
2018-11-11T12:36:10.853Z,5.10
2018-11-11T12:37:10.853Z,7.80
2018-11-11T12:38:10.822Z,3.20
2018-11-11T12:39:10.920Z,7.00
2018-11-11T12:40:10.902Z,8.10
2018-11-11T12:41:10.779Z,4.30
2018-11-11T12:42:10.819Z,4.10
2018-11-11T12:43:10.813Z,3.60
2018-11-11T12:44:10.763Z,6.40
2018-11-11T12:45:11.352Z,5.20
2018-11-11T12:46:10.741Z,6.50
2018-11-11T12:47:10.780Z,3.40
2018-11-11T12:48:10.710Z,5.90
2018-11-11T12:49:10.780Z,5.30
2018-11-11T12:50:10.737Z,7.40
2018-11-11T12:51:10.673Z,5.00
2018-11-11T12:52:10.664Z,5.00
2018-11-11T12:53:10.679Z,5.20
2018-11-11T12:54:10.639Z,6.90
2018-11-11T12:55:10.689Z,3.70
2018-11-11T12:56:10.616Z,3.00
2018-11-11T12:57:10.607Z,6.60
2018-11-11T12:58:10.619Z,6.20
2018-11-11T12:59:10.876Z,7.60
2018-11-11T13:00:10.646Z,4.30
2018-11-11T13:01:10.578Z,4.40
2018-11-11T13:02:10.556Z,1.70
2018-11-11T13:03:10.746Z,6.00
2018-11-11T13:04:10.549Z,2.70
2018-11-11T13:05:10.526Z,4.50
2018-11-11T13:06:10.509Z,5.00
2018-11-11T13:07:10.500Z,4.10
2018-11-11T13:08:10.537Z,2.10
2018-11-11T13:09:10.478Z,2.80
2018-11-11T13:10:10.473Z,5.60
2018-11-11T13:11:10.454Z,2.40
2018-11-11T13:12:10.573Z,3.60
2018-11-11T13:13:10.467Z,11.20
2018-11-11T13:14:10.432Z,18.60
2018-11-11T13:15:10.425Z,13.50
2018-11-11T13:16:10.450Z,12.80
2018-11-11T13:17:10.422Z,11.20
2018-11-11T13:18:11.370Z,15.80
2018-11-11T13:19:10.374Z,10.50
2018-11-11T13:20:10.374Z,10.80
2018-11-11T13:21:10.354Z,6.70
2018-11-11T13:22:10.384Z,8.80
2018-11-11T13:23:10.363Z,8.00
2018-11-11T13:24:10.326Z,7.00
2018-11-11T13:25:10.304Z,6.40
2018-11-11T13:26:10.307Z,10.30
2018-11-11T13:27:10.319Z,8.70
2018-11-11T13:28:10.301Z,4.60
2018-11-11T13:29:10.280Z,9.00
2018-11-11T13:30:10.253Z,13.30
2018-11-11T13:31:10.237Z,8.80
2018-11-11T13:32:10.228Z,8.60
2018-11-11T13:33:10.236Z,12.50
2018-11-11T13:34:10.233Z,11.40
2018-11-11T13:35:10.199Z,9.50
2018-11-11T13:36:10.195Z,13.20
2018-11-11T13:37:10.201Z,5.60
2018-11-11T13:38:10.192Z,11.10
2018-11-11T13:39:10.155Z,10.30
2018-11-11T13:40:10.164Z,6.10
2018-11-11T13:41:10.132Z,7.00
2018-11-11T13:42:10.137Z,9.50
2018-11-11T13:43:10.203Z,5.70
2018-11-11T13:44:10.119Z,5.50
2018-11-11T13:45:10.851Z,7.30
2018-11-11T13:46:10.129Z,5.90
2018-11-11T13:47:10.067Z,13.20
2018-11-11T13:48:10.089Z,6.00
2018-11-11T13:49:10.047Z,6.50
2018-11-11T13:50:10.037Z,8.10
2018-11-11T13:51:10.036Z,5.10
2018-11-11T13:52:10.013Z,6.50
2018-11-11T13:53:10.063Z,5.80
2018-11-11T13:54:09.998Z,3.70
2018-11-11T13:55:09.989Z,9.80
2018-11-11T13:57:25.728Z,25.50
2018-11-11T13:58:25.689Z,19.20
2018-11-11T13:59:25.646Z,14.30
2018-11-11T14:00:25.641Z,19.20
2018-11-11T14:01:25.669Z,17.30
2018-11-11T14:02:25.642Z,21.00
2018-11-11T14:03:25.623Z,17.30
2018-11-11T14:04:32.650Z,14.40
2018-11-11T14:05:25.606Z,9.90
2018-11-11T14:06:25.599Z,17.00
2018-11-11T14:07:25.599Z,17.40
2018-11-11T14:08:25.675Z,17.80
2018-11-11T14:09:25.546Z,14.00
2018-11-11T14:10:25.542Z,12.80
2018-11-11T14:11:25.539Z,17.50
2018-11-11T14:12:25.534Z,15.70
2018-11-11T14:13:25.526Z,20.40
2018-11-11T14:14:25.491Z,9.30
2018-11-11T14:15:25.482Z,16.20
2018-11-11T14:16:25.468Z,14.90
2018-11-11T14:17:25.460Z,21.40
2018-11-11T14:18:25.651Z,19.70
2018-11-11T14:19:25.528Z,14.70
2018-11-11T14:20:25.464Z,7.80
2018-11-11T14:21:25.418Z,13.10
2018-11-11T14:22:25.408Z,12.50
2018-11-11T14:23:25.430Z,15.00
2018-11-11T14:24:25.417Z,14.10
2018-11-11T14:25:25.981Z,12.30
2018-11-11T14:26:25.444Z,8.60
2018-11-11T14:27:25.348Z,6.40
2018-11-11T14:28:25.363Z,10.50
2018-11-11T14:29:25.338Z,13.70
2018-11-11T14:30:25.352Z,7.70
2018-11-11T14:31:25.318Z,7.10
2018-11-11T14:32:25.964Z,5.50
2018-11-11T14:33:25.310Z,9.80
2018-11-11T14:34:25.318Z,8.50
2018-11-11T14:35:25.270Z,11.20
2018-11-11T14:36:25.256Z,7.40
2018-11-11T14:37:25.262Z,6.40
2018-11-11T14:38:25.389Z,4.00
2018-11-11T14:39:25.223Z,8.30
2018-11-11T14:40:25.214Z,7.40
2018-11-11T14:41:25.203Z,6.20
2018-11-11T14:42:25.190Z,6.40
2018-11-11T14:43:25.226Z,6.90
2018-11-11T14:44:25.178Z,7.00
2018-11-11T14:45:25.163Z,7.60
2018-11-11T14:46:25.904Z,6.30
2018-11-11T14:47:25.140Z,5.30
2018-11-11T14:48:25.168Z,9.90
2018-11-11T14:49:25.903Z,4.20
2018-11-11T14:50:25.158Z,7.70
2018-11-11T14:51:25.094Z,3.50
2018-11-11T14:52:27.171Z,5.30
2018-11-11T14:53:25.078Z,5.60
2018-11-11T14:54:25.081Z,2.90
2018-11-11T14:55:25.973Z,4.30
2018-11-11T14:56:25.074Z,7.20
2018-11-11T14:57:25.032Z,4.70
2018-11-11T14:58:25.120Z,4.70
2018-11-11T14:59:25.031Z,5.60
2018-11-11T15:00:24.999Z,5.20
2018-11-11T15:01:25.005Z,4.80
2018-11-11T15:02:24.998Z,5.50
2018-11-11T15:03:25.915Z,4.20
2018-11-11T15:04:24.975Z,4.60
2018-11-11T15:05:24.948Z,3.80
2018-11-11T15:06:24.938Z,4.60
2018-11-11T15:07:24.931Z,3.50
2018-11-11T15:08:24.918Z,2.80
2018-11-11T15:09:24.961Z,3.30
2018-11-11T15:10:24.897Z,4.00
2018-11-11T15:11:25.100Z,3.70
2018-11-11T15:12:33.224Z,3.50
2018-11-11T15:13:25.443Z,5.80
2018-11-11T15:14:24.876Z,4.20
2018-11-11T15:15:24.880Z,5.90
2018-11-11T15:16:24.830Z,2.70
2018-11-11T15:17:24.819Z,4.00
2018-11-11T15:18:24.826Z,5.60
2018-11-11T15:19:25.036Z,2.50
2018-11-11T15:20:24.950Z,2.30
2018-11-11T15:21:24.777Z,5.30
2018-11-11T15:22:24.766Z,4.80
2018-11-11T15:23:24.762Z,2.70
2018-11-11T15:24:24.772Z,3.60
2018-11-11T15:25:24.754Z,5.20
2018-11-11T15:26:24.746Z,3.00
2018-11-11T15:27:24.713Z,1.70
2018-11-11T15:28:24.703Z,3.50
2018-11-11T15:29:24.969Z,2.80
2018-11-11T15:30:24.795Z,1.50
2018-11-11T15:31:24.732Z,4.80
2018-11-11T15:32:24.665Z,4.00
2018-11-11T15:33:24.648Z,4.40
2018-11-11T15:34:24.692Z,5.40
2018-11-11T15:35:24.637Z,3.40
2018-11-11T15:36:24.636Z,5.60
2018-11-11T15:37:24.607Z,3.30
2018-11-11T15:38:24.612Z,3.10
2018-11-11T15:39:24.584Z,2.70
2018-11-11T15:40:24.592Z,3.70
2018-11-11T15:41:24.572Z,4.30
2018-11-11T15:42:24.579Z,3.10
2018-11-11T15:43:24.546Z,4.40
2018-11-11T15:44:24.539Z,2.30
2018-11-11T15:45:24.569Z,4.30
2018-11-11T15:46:24.509Z,4.30
2018-11-11T15:47:24.504Z,3.20
2018-11-11T15:48:24.507Z,4.40
2018-11-11T15:49:24.478Z,4.20
2018-11-11T15:50:24.490Z,2.60
2018-11-11T15:51:24.459Z,2.00
2018-11-11T15:52:24.597Z,3.50
2018-11-11T15:53:24.435Z,3.40
2018-11-11T15:54:24.455Z,5.40
2018-11-11T15:55:24.433Z,2.00
2018-11-11T15:56:24.420Z,1.80
2018-11-11T15:57:24.394Z,3.30
2018-11-11T15:58:24.385Z,3.00
2018-11-11T15:59:24.472Z,2.90
2018-11-11T16:00:24.392Z,1.80
2018-11-11T16:01:24.964Z,3.20
2018-11-11T16:02:24.353Z,3.80
2018-11-11T16:03:24.328Z,2.60
2018-11-11T16:04:24.321Z,3.20
2018-11-11T16:05:24.327Z,2.60
2018-11-11T16:06:24.377Z,1.90
2018-11-11T16:07:24.289Z,3.40
2018-11-11T16:08:24.291Z,3.10
2018-11-11T16:09:24.263Z,4.00
2018-11-11T16:10:24.334Z,2.50
2018-11-11T16:11:24.248Z,2.10
2018-11-11T16:12:24.252Z,3.80
2018-11-11T16:13:24.226Z,2.80
2018-11-11T16:14:24.237Z,1.80
2018-11-11T16:15:24.201Z,2.10
2018-11-11T16:16:24.211Z,2.00
2018-11-11T16:17:24.182Z,4.40
2018-11-11T16:18:24.192Z,3.70
2018-11-11T16:19:24.161Z,2.80
2018-11-11T16:20:24.253Z,3.40
2018-11-11T16:21:24.173Z,2.30
2018-11-11T16:22:24.128Z,3.20
2018-11-11T16:23:24.128Z,2.20
2018-11-11T16:24:24.108Z,2.80
2018-11-11T16:25:24.140Z,1.90
2018-11-11T16:26:24.125Z,2.60
2018-11-11T16:27:24.077Z,2.90
2018-11-11T16:28:24.065Z,2.50
2018-11-11T16:29:24.060Z,4.70
2018-11-11T16:30:24.043Z,10.30
2018-11-11T16:31:24.071Z,3.80
2018-11-11T16:32:24.048Z,3.60
2018-11-11T16:33:24.011Z,6.10
2018-11-11T16:34:24.000Z,2.30
2018-11-11T16:35:23.994Z,4.20
2018-11-11T16:36:24.062Z,3.30
2018-11-11T16:37:23.998Z,3.30
2018-11-11T16:38:23.986Z,3.30
2018-11-11T16:39:24.091Z,7.70
2018-11-11T16:40:23.942Z,6.70
2018-11-11T16:41:23.995Z,6.80
2018-11-11T16:42:23.915Z,3.90
2018-11-11T16:43:23.910Z,5.90
2018-11-11T16:44:23.910Z,8.70
2018-11-11T16:45:23.884Z,4.30
2018-11-11T16:46:25.034Z,5.90
2018-11-11T16:47:23.861Z,3.00
2018-11-11T16:48:23.852Z,8.90
2018-11-11T16:49:23.853Z,6.70
2018-11-11T16:50:23.844Z,4.70
2018-11-11T16:51:23.820Z,6.60
2018-11-11T16:52:23.828Z,6.30
2018-11-11T16:53:24.460Z,9.60
2018-11-11T16:54:23.790Z,4.30
2018-11-11T16:55:23.885Z,5.80
2018-11-11T16:56:23.775Z,5.80
2018-11-11T16:57:23.789Z,5.20
2018-11-11T16:58:23.746Z,4.30
2018-11-11T16:59:23.736Z,5.90
2018-11-11T17:00:23.724Z,5.00
2018-11-11T17:01:23.733Z,4.10
2018-11-11T17:02:23.725Z,5.50
2018-11-11T17:03:23.694Z,5.80
2018-11-11T17:04:23.775Z,8.90
2018-11-11T17:05:23.684Z,5.60
2018-11-11T17:06:23.662Z,4.70
2018-11-11T17:07:23.702Z,4.10
2018-11-11T17:08:23.651Z,7.10
2018-11-11T17:09:23.629Z,3.00
2018-11-11T17:10:23.623Z,4.10
2018-11-11T17:11:23.609Z,6.40
2018-11-11T17:12:24.030Z,5.00
2018-11-11T17:13:23.593Z,4.10
2018-11-11T17:14:23.741Z,6.90
2018-11-11T17:15:23.565Z,5.90
2018-11-11T17:16:23.569Z,4.20
2018-11-11T17:17:23.545Z,4.10
2018-11-11T17:18:23.567Z,4.00
2018-11-11T17:19:23.530Z,5.70
2018-11-11T17:20:23.732Z,4.60
2018-11-11T17:21:23.579Z,1.80
2018-11-11T17:22:23.583Z,4.30
2018-11-11T17:23:23.499Z,3.40
2018-11-11T17:24:23.469Z,3.50
2018-11-11T17:25:23.525Z,4.50
2018-11-11T17:26:23.463Z,2.90
2018-11-11T17:27:23.464Z,5.40
2018-11-11T17:28:23.539Z,4.10
2018-11-11T17:29:23.456Z,4.20
2018-11-11T17:30:23.407Z,4.10
2018-11-11T17:31:23.400Z,2.80
2018-11-11T17:32:23.405Z,3.90
2018-11-11T17:33:23.412Z,2.30
2018-11-11T17:34:23.367Z,4.00
2018-11-11T17:35:23.354Z,5.20
2018-11-11T17:36:23.343Z,4.90
2018-11-11T17:37:23.331Z,3.50
2018-11-11T17:38:23.348Z,3.00
2018-11-11T17:39:23.339Z,3.80
2018-11-11T17:40:23.302Z,3.40
2018-11-11T17:41:23.291Z,4.70
2018-11-11T17:42:23.280Z,3.90
2018-11-11T17:43:23.288Z,4.80
2018-11-11T17:44:23.258Z,3.40
2018-11-11T17:45:23.262Z,5.60
2018-11-11T17:46:23.239Z,7.20
2018-11-11T17:47:23.224Z,4.30
2018-11-11T17:48:23.269Z,4.10
2018-11-11T17:49:23.213Z,2.50
2018-11-11T17:50:23.193Z,3.60
2018-11-11T17:51:23.201Z,5.00
2018-11-11T17:52:23.177Z,3.40
2018-11-11T17:53:23.195Z,3.50
2018-11-11T17:54:23.169Z,2.00
2018-11-11T17:55:23.241Z,2.90
2018-11-11T17:56:23.143Z,1.70
2018-11-11T17:57:23.119Z,2.30
2018-11-11T17:58:23.120Z,3.60
2018-11-11T17:59:23.990Z,3.90
2018-11-11T18:00:23.094Z,3.40
2018-11-11T18:01:23.082Z,2.10
2018-11-11T18:02:23.123Z,3.60
2018-11-11T18:03:23.151Z,3.80
2018-11-11T18:04:23.089Z,3.50
2018-11-11T18:05:23.050Z,2.10
2018-11-11T18:06:23.025Z,2.30
2018-11-11T18:07:23.020Z,2.60
2018-11-11T18:08:23.003Z,1.90
2018-11-11T18:09:23.027Z,2.60
2018-11-11T18:10:23.016Z,4.40
2018-11-11T18:11:22.971Z,5.00
2018-11-11T18:12:22.961Z,1.70
2018-11-11T18:13:23.001Z,3.70
2018-11-11T18:14:23.028Z,2.70
2018-11-11T18:15:22.928Z,3.40
2018-11-11T18:16:22.932Z,2.00
2018-11-11T18:17:22.986Z,3.00
2018-11-11T18:18:22.900Z,1.90
2018-11-11T18:19:22.927Z,2.30
2018-11-11T18:20:22.878Z,2.80
2018-11-11T18:21:22.864Z,1.70
2018-11-11T18:22:22.853Z,2.70
2018-11-11T18:23:22.847Z,2.20
2018-11-11T18:24:22.839Z,1.50
2018-11-11T18:25:22.842Z,4.60
2018-11-11T18:26:22.839Z,3.30
2018-11-11T18:27:23.010Z,2.20
2018-11-11T18:28:22.891Z,3.20
2018-11-11T18:29:22.808Z,2.90
2018-11-11T18:30:22.813Z,3.00
2018-11-11T18:31:22.762Z,2.00
2018-11-11T18:32:22.749Z,2.20
2018-11-11T18:33:27.478Z,1.90
2018-11-11T18:34:22.793Z,2.80
2018-11-11T18:35:22.735Z,2.60
2018-11-11T18:36:23.510Z,2.00
2018-11-11T18:37:22.700Z,2.30
2018-11-11T18:38:22.700Z,1.90
2018-11-11T18:39:22.675Z,5.60
2018-11-11T18:40:23.481Z,1.80
2018-11-11T18:41:22.654Z,1.70
2018-11-11T18:42:22.695Z,2.30
2018-11-11T18:43:22.646Z,1.60
2018-11-11T18:44:23.480Z,1.90
2018-11-11T18:45:22.649Z,1.90
2018-11-11T18:46:22.599Z,1.30
2018-11-11T18:47:22.594Z,2.30
2018-11-11T18:48:22.580Z,0.80
2018-11-11T18:49:22.578Z,2.40
2018-11-11T18:50:22.577Z,1.20
2018-11-11T18:51:22.546Z,1.80
2018-11-11T18:52:22.535Z,3.30
2018-11-11T18:53:22.553Z,2.40
2018-11-11T18:54:22.517Z,2.30
2018-11-11T18:55:22.543Z,1.80
2018-11-11T18:56:22.495Z,1.20
2018-11-11T18:57:22.685Z,2.10
2018-11-11T18:58:22.484Z,3.90
2018-11-11T18:59:22.480Z,2.40
2018-11-11T19:00:23.539Z,2.50
2018-11-11T19:01:22.478Z,2.10
2018-11-11T19:02:22.455Z,2.60
2018-11-11T19:03:22.424Z,3.90
2018-11-11T19:04:22.464Z,0.90
2018-11-11T19:05:22.443Z,2.40
2018-11-11T19:06:22.389Z,1.90
2018-11-11T19:07:22.381Z,2.90
2018-11-11T19:08:22.403Z,2.30
2018-11-11T19:09:22.388Z,3.10
2018-11-11T19:10:22.446Z,3.30
2018-11-11T19:11:22.351Z,3.90
2018-11-11T19:12:22.325Z,1.10
2018-11-11T19:13:22.365Z,2.60
2018-11-11T19:14:22.318Z,2.90
2018-11-11T19:15:22.339Z,2.40
2018-11-11T19:16:22.281Z,3.90
2018-11-11T19:17:22.276Z,2.20
2018-11-11T19:18:29.314Z,2.60
2018-11-11T19:19:23.309Z,1.60
2018-11-11T19:20:22.376Z,2.70
2018-11-11T19:21:22.428Z,2.30
2018-11-11T19:22:22.578Z,1.30
2018-11-11T19:23:22.260Z,1.10
2018-11-11T19:24:22.287Z,3.50
2018-11-11T19:25:22.231Z,2.50
2018-11-11T19:26:22.196Z,2.30
2018-11-11T19:27:22.186Z,4.00
2018-11-11T19:28:22.258Z,2.10
2018-11-11T19:29:22.163Z,3.10
2018-11-11T19:30:22.619Z,2.10
2018-11-11T19:31:22.163Z,1.00
2018-11-11T19:32:22.153Z,1.30
2018-11-11T19:33:22.166Z,2.90
2018-11-11T19:34:22.100Z,1.80
2018-11-11T19:35:22.119Z,0.80
2018-11-11T19:36:22.127Z,2.10
2018-11-11T19:37:22.077Z,1.40
2018-11-11T19:38:22.081Z,2.60
2018-11-11T19:39:22.042Z,1.00
2018-11-11T19:40:22.073Z,1.10
2018-11-11T19:41:23.653Z,1.50
2018-11-11T19:42:22.066Z,2.70
2018-11-11T19:43:22.026Z,2.20
2018-11-11T19:44:21.984Z,5.10
2018-11-11T19:45:21.979Z,2.70
2018-11-11T19:46:21.991Z,3.40
2018-11-11T19:47:43.611Z,4.50
2018-11-11T19:48:25.663Z,4.40
2018-11-11T19:49:24.545Z,1.90
2018-11-11T19:50:23.556Z,3.70
2018-11-11T19:51:44.661Z,4.20
2018-11-11T19:52:21.930Z,2.70
2018-11-11T19:53:21.925Z,1.50
2018-11-11T19:54:21.904Z,1.50
2018-11-11T19:55:33.553Z,2.50
2018-11-11T19:56:46.627Z,1.80
2018-11-11T19:57:44.544Z,4.80
2018-11-11T19:58:21.876Z,2.00
2018-11-11T19:59:22.841Z,6.60
2018-11-11T20:00:26.564Z,4.20
2018-11-11T20:01:53.555Z,1.90
2018-11-11T20:02:49.608Z,4.20
2018-11-11T20:03:26.578Z,3.40
2018-11-11T20:04:21.850Z,5.60
2018-11-11T20:05:21.808Z,1.80
2018-11-11T20:06:22.120Z,2.60
2018-11-11T20:07:21.779Z,2.50
2018-11-11T20:08:21.753Z,2.20